createdAt,value
2023-04-19T00:00:01.652Z,5.90
2023-04-19T00:02:47.719Z,5.95
2023-04-19T00:05:35.638Z,5.86
2023-04-19T00:08:21.615Z,5.84
2023-04-19T00:11:07.627Z,5.79
2023-04-19T00:13:53.817Z,5.77
2023-04-19T00:16:39.696Z,5.76
2023-04-19T00:19:26.061Z,5.80
2023-04-19T00:22:12.027Z,5.75
2023-04-19T00:24:57.934Z,5.77
2023-04-19T00:27:43.845Z,5.70
2023-04-19T00:30:29.701Z,5.63
2023-04-19T00:33:15.547Z,5.62
2023-04-19T00:36:01.458Z,5.59
2023-04-19T00:38:47.356Z,5.54
2023-04-19T00:41:33.345Z,5.54
2023-04-19T00:44:19.203Z,5.55
2023-04-19T00:47:05.008Z,5.65
2023-04-19T00:49:50.919Z,5.81
2023-04-19T00:52:36.833Z,5.70
2023-04-19T00:55:22.620Z,5.63
2023-04-19T00:58:08.710Z,5.64
2023-04-19T01:00:54.546Z,5.60
2023-04-19T01:03:40.643Z,5.67
2023-04-19T01:06:26.950Z,5.68
2023-04-19T01:09:12.616Z,5.84
2023-04-19T01:11:58.537Z,5.91
2023-04-19T01:14:44.406Z,5.90
2023-04-19T01:17:30.327Z,5.85
2023-04-19T01:20:16.286Z,5.74
2023-04-19T01:23:02.125Z,5.80
2023-04-19T01:25:48.238Z,5.61
2023-04-19T01:28:34.454Z,5.57
2023-04-19T01:31:20.382Z,5.66
2023-04-19T01:34:06.754Z,5.53
2023-04-19T01:36:52.712Z,5.41
2023-04-19T01:39:38.775Z,5.29
2023-04-19T01:42:24.751Z,5.29
2023-04-19T01:45:10.542Z,5.20
2023-04-19T01:47:56.594Z,5.21
2023-04-19T01:50:42.637Z,5.24
2023-04-19T01:53:28.530Z,5.25
2023-04-19T01:56:14.585Z,5.39
2023-04-19T01:59:00.476Z,5.73
2023-04-19T02:01:46.295Z,5.88
2023-04-19T02:04:32.292Z,6.11
2023-04-19T02:07:18.175Z,6.24
2023-04-19T02:10:04.104Z,5.77
2023-04-19T02:12:49.931Z,5.91
2023-04-19T02:15:35.810Z,5.58
2023-04-19T02:18:21.714Z,5.64
2023-04-19T02:21:07.597Z,5.66
2023-04-19T02:23:53.558Z,5.92
2023-04-19T02:26:39.687Z,5.75
2023-04-19T02:29:25.476Z,5.82
2023-04-19T02:32:11.474Z,6.00
2023-04-19T02:34:57.308Z,5.82
2023-04-19T02:37:43.227Z,5.65
2023-04-19T02:40:29.101Z,5.54
2023-04-19T02:43:14.959Z,5.57
2023-04-19T02:46:00.813Z,5.70
2023-04-19T02:48:46.833Z,5.74
2023-04-19T02:51:32.784Z,5.57
2023-04-19T02:54:18.661Z,6.00
2023-04-19T02:57:04.530Z,6.07
2023-04-19T02:59:50.370Z,6.20
2023-04-19T03:02:36.381Z,6.44
2023-04-19T03:05:22.358Z,6.75
2023-04-19T03:08:08.296Z,6.36
2023-04-19T03:10:54.106Z,6.34
2023-04-19T03:13:39.953Z,5.99
2023-04-19T03:16:25.942Z,5.90
2023-04-19T03:19:11.896Z,6.06
2023-04-19T03:21:57.694Z,6.02
2023-04-19T03:24:43.614Z,5.61
2023-04-19T03:27:29.488Z,5.76
2023-04-19T03:30:15.556Z,5.58
2023-04-19T03:33:01.386Z,5.79
2023-04-19T03:35:47.256Z,5.75
2023-04-19T03:38:33.141Z,5.91
2023-04-19T03:41:19.113Z,6.01
2023-04-19T03:44:05.106Z,5.67
2023-04-19T03:46:52.959Z,5.67
2023-04-19T03:49:38.686Z,5.95
2023-04-19T03:52:24.583Z,5.81
2023-04-19T03:55:10.480Z,6.18
2023-04-19T03:57:56.387Z,6.37
2023-04-19T04:00:42.363Z,6.15
2023-04-19T04:03:28.366Z,6.16
2023-04-19T04:06:14.606Z,6.07
2023-04-19T04:09:00.594Z,5.85
2023-04-19T04:11:46.586Z,5.57
2023-04-19T04:14:32.474Z,5.80
2023-04-19T04:17:18.324Z,5.85
2023-04-19T04:20:04.278Z,6.16
2023-04-19T04:22:50.220Z,6.13
2023-04-19T04:25:36.057Z,6.15
2023-04-19T04:28:21.975Z,6.80
2023-04-19T04:31:07.920Z,6.96
2023-04-19T04:33:53.832Z,6.94
2023-04-19T04:36:39.818Z,6.49
2023-04-19T04:39:25.697Z,6.10
2023-04-19T04:42:11.543Z,5.91
2023-04-19T04:44:57.528Z,5.82
2023-04-19T04:47:43.435Z,5.48
2023-04-19T04:50:29.343Z,5.74
2023-04-19T04:53:15.446Z,5.60
2023-04-19T04:56:01.405Z,5.67
2023-04-19T04:58:47.291Z,5.80
2023-04-19T05:01:33.192Z,6.11
2023-04-19T05:04:19.188Z,6.38
2023-04-19T05:07:05.431Z,6.18
2023-04-19T05:09:51.311Z,6.02
2023-04-19T05:12:37.292Z,6.20
2023-04-19T05:15:23.240Z,5.84
2023-04-19T05:18:09.126Z,6.13
2023-04-19T05:20:55.014Z,6.30
2023-04-19T05:23:40.980Z,5.46
2023-04-19T05:26:26.936Z,5.68
2023-04-19T05:29:12.856Z,5.66
2023-04-19T05:31:58.795Z,5.50
2023-04-19T05:34:44.684Z,5.87
2023-04-19T05:37:30.549Z,5.74
2023-04-19T05:40:16.450Z,5.74
2023-04-19T05:43:02.405Z,5.51
2023-04-19T05:45:48.440Z,5.74
2023-04-19T05:48:34.586Z,6.04
2023-04-19T05:51:20.550Z,5.86
2023-04-19T05:54:06.397Z,5.85
2023-04-19T05:56:52.316Z,5.35
2023-04-19T05:59:38.295Z,5.48
2023-04-19T06:02:24.303Z,5.30
2023-04-19T06:05:11.247Z,5.42
2023-04-19T06:08:02.676Z,5.57
2023-04-19T06:10:54.466Z,5.53
2023-04-19T06:13:43.088Z,5.84
2023-04-19T06:16:28.900Z,6.03
2023-04-19T06:19:14.930Z,5.96
2023-04-19T06:22:00.861Z,6.06
2023-04-19T06:24:48.937Z,5.92
2023-04-19T06:27:34.816Z,5.96
2023-04-19T06:30:20.815Z,6.08
2023-04-19T06:33:06.683Z,5.96
2023-04-19T06:35:52.776Z,5.99
2023-04-19T06:38:38.640Z,6.01
2023-04-19T06:41:24.615Z,6.28
2023-04-19T06:44:10.776Z,6.44
2023-04-19T06:46:56.856Z,6.44
2023-04-19T06:49:42.740Z,5.98
2023-04-19T06:52:28.640Z,5.77
2023-04-19T06:55:14.514Z,5.89
2023-04-19T06:58:00.573Z,6.01
2023-04-19T07:00:46.323Z,6.05
2023-04-19T07:03:32.417Z,5.75
2023-04-19T07:06:18.657Z,6.30
2023-04-19T07:09:04.598Z,6.32
2023-04-19T07:11:50.565Z,6.42
2023-04-19T07:14:36.507Z,6.51
2023-04-19T07:17:22.310Z,6.44
2023-04-19T07:20:08.419Z,6.60
2023-04-19T07:22:54.352Z,6.90
2023-04-19T07:25:40.318Z,7.24
2023-04-19T07:28:26.114Z,6.94
2023-04-19T07:31:11.905Z,6.90
2023-04-19T07:33:57.724Z,7.28
2023-04-19T07:36:43.574Z,6.98
2023-04-19T07:39:29.575Z,7.09
2023-04-19T07:42:15.598Z,6.99
2023-04-19T07:45:01.396Z,6.89
2023-04-19T07:47:47.531Z,6.42
2023-04-19T07:50:33.332Z,6.33
2023-04-19T07:53:19.325Z,6.98
2023-04-19T07:56:05.413Z,7.24
2023-04-19T07:59:04.513Z,7.65
2023-04-19T08:01:54.251Z,7.24
2023-04-19T08:04:40.747Z,7.23
2023-04-19T08:07:26.830Z,7.15
2023-04-19T08:10:12.820Z,7.68
2023-04-19T08:13:05.985Z,7.42
2023-04-19T08:16:27.209Z,7.54
2023-04-19T08:18:59.034Z,7.48
2023-04-19T08:21:44.866Z,7.32
2023-04-19T08:24:30.732Z,7.44
2023-04-19T08:27:16.699Z,7.91
2023-04-19T08:30:02.531Z,7.86
2023-04-19T08:32:48.530Z,7.56
2023-04-19T08:35:34.361Z,8.01
2023-04-19T08:38:20.390Z,7.81
2023-04-19T08:41:06.377Z,7.85
2023-04-19T08:43:52.229Z,7.63
2023-04-19T08:46:38.378Z,8.05
2023-04-19T08:49:24.667Z,8.09
2023-04-19T08:52:10.628Z,8.27
2023-04-19T08:54:56.574Z,8.13
2023-04-19T08:57:42.336Z,8.11
2023-04-19T09:00:28.312Z,8.50
2023-04-19T09:03:14.460Z,7.74
2023-04-19T09:06:00.977Z,7.80
2023-04-19T09:08:47.395Z,8.37
2023-04-19T09:11:33.324Z,8.20
2023-04-19T09:14:19.254Z,8.76
2023-04-19T09:17:05.117Z,8.55
2023-04-19T09:19:51.133Z,8.45
2023-04-19T09:22:36.994Z,8.46
2023-04-19T09:25:43.746Z,8.98
2023-04-19T09:28:29.153Z,8.53
2023-04-19T09:31:35.412Z,8.96
2023-04-19T09:34:21.174Z,9.76
2023-04-19T09:37:13.449Z,10.32
2023-04-19T09:40:05.867Z,9.55
2023-04-19T09:45:40.746Z,10.27
2023-04-19T09:48:26.498Z,9.91
2023-04-19T09:51:14.545Z,9.89
2023-04-19T09:54:00.979Z,10.43
2023-04-19T09:56:46.943Z,10.68
2023-04-19T09:59:32.839Z,10.35
2023-04-19T10:02:19.034Z,9.30
2023-04-19T10:05:19.734Z,9.54
2023-04-19T10:08:07.244Z,9.14
2023-04-19T10:10:53.132Z,9.89
2023-04-19T10:13:39.003Z,9.80
2023-04-19T10:16:25.029Z,9.67
2023-04-19T10:19:10.833Z,9.12
2023-04-19T10:21:56.709Z,9.37
2023-04-19T10:24:44.507Z,9.69
2023-04-19T10:27:30.954Z,9.53
2023-04-19T10:30:16.939Z,9.73
2023-04-19T10:33:02.889Z,9.82
2023-04-19T10:35:49.141Z,9.48
2023-04-19T10:38:35.045Z,9.64
2023-04-19T10:41:20.971Z,9.74
2023-04-19T10:44:06.963Z,9.88
2023-04-19T10:46:52.994Z,9.77
2023-04-19T10:49:38.992Z,10.60
2023-04-19T10:52:24.945Z,9.90
2023-04-19T10:55:10.843Z,10.40
2023-04-19T10:57:56.751Z,10.02
2023-04-19T11:00:42.647Z,10.29
2023-04-19T11:03:29.045Z,10.12
2023-04-19T11:06:15.506Z,10.15
2023-04-19T11:09:01.746Z,10.44
2023-04-19T11:11:47.625Z,10.07
2023-04-19T11:14:33.659Z,10.53
2023-04-19T11:17:19.605Z,10.73
2023-04-19T11:20:05.512Z,10.60
2023-04-19T11:22:51.635Z,10.52
2023-04-19T11:25:37.360Z,10.52
2023-04-19T11:28:23.365Z,10.02
2023-04-19T11:31:09.452Z,10.50
2023-04-19T11:33:55.330Z,10.37
2023-04-19T11:36:41.141Z,11.34
2023-04-19T11:39:27.102Z,11.00
2023-04-19T11:42:12.950Z,10.16
2023-04-19T11:45:00.808Z,10.54
2023-04-19T11:47:46.881Z,10.50
2023-04-19T11:50:33.023Z,10.44
2023-04-19T11:53:19.082Z,10.91
2023-04-19T11:56:05.262Z,11.12
2023-04-19T11:58:51.695Z,10.89
2023-04-19T12:01:37.636Z,10.97
2023-04-19T12:04:23.664Z,11.36
2023-04-19T12:07:10.046Z,11.34
2023-04-19T12:09:56.056Z,11.39
2023-04-19T12:12:42.221Z,10.66
2023-04-19T12:15:28.829Z,11.33
2023-04-19T12:18:15.294Z,11.31
2023-04-19T12:21:01.646Z,11.17
2023-04-19T12:23:47.689Z,11.83
2023-04-19T12:26:33.602Z,12.15
2023-04-19T12:29:19.795Z,11.81
2023-04-19T12:32:05.824Z,12.09
2023-04-19T12:34:51.776Z,12.29
2023-04-19T12:37:37.810Z,12.01
2023-04-19T12:40:23.813Z,12.25
2023-04-19T12:43:09.643Z,12.29
2023-04-19T12:45:55.672Z,12.04
2023-04-19T12:48:41.507Z,11.92
2023-04-19T12:51:27.334Z,11.84
2023-04-19T12:54:13.425Z,12.49
2023-04-19T12:56:59.763Z,12.24
2023-04-19T12:59:46.608Z,12.41
2023-04-19T13:02:32.682Z,12.79
2023-04-19T13:05:18.836Z,13.60
2023-04-19T13:08:05.151Z,13.35
2023-04-19T13:10:51.263Z,12.91
2023-04-19T13:13:37.260Z,13.44
2023-04-19T13:16:23.309Z,13.44
2023-04-19T13:19:09.230Z,12.63
2023-04-19T13:21:55.160Z,12.96
2023-04-19T13:24:41.135Z,12.92
2023-04-19T13:27:27.011Z,13.09
2023-04-19T13:30:13.055Z,12.98
2023-04-19T13:32:59.337Z,12.58
2023-04-19T13:35:45.355Z,13.16
2023-04-19T13:38:31.396Z,12.35
2023-04-19T13:41:17.342Z,12.91
2023-04-19T13:44:03.349Z,13.30
2023-04-19T13:46:49.418Z,13.23
2023-04-19T13:49:35.373Z,14.67
2023-04-19T13:52:21.443Z,13.75
2023-04-19T13:55:07.399Z,13.62
2023-04-19T13:57:53.240Z,13.42
2023-04-19T14:00:39.222Z,13.92
2023-04-19T14:03:25.407Z,13.23
2023-04-19T14:08:54.115Z,14.01
2023-04-19T14:11:40.053Z,14.93
2023-04-19T14:14:25.982Z,13.52
2023-04-19T14:17:11.920Z,14.04
2023-04-19T14:19:57.885Z,14.50
2023-04-19T14:22:43.819Z,13.80
2023-04-19T14:25:29.771Z,14.68
2023-04-19T14:28:15.644Z,14.30
2023-04-19T14:31:01.444Z,14.97
2023-04-19T14:33:47.436Z,14.82
2023-04-19T14:36:33.480Z,14.70
2023-04-19T14:39:20.381Z,14.97
2023-04-19T14:42:06.184Z,14.67
2023-04-19T14:44:52.285Z,14.31
2023-04-19T14:47:38.361Z,14.30
2023-04-19T14:50:24.568Z,15.16
2023-04-19T14:53:10.392Z,14.17
2023-04-19T14:55:56.177Z,14.32
2023-04-19T14:58:42.216Z,14.74
2023-04-19T15:01:28.054Z,14.34
2023-04-19T15:04:14.130Z,14.67
2023-04-19T15:07:00.393Z,14.31
2023-04-19T15:09:46.268Z,14.23
2023-04-19T15:12:32.322Z,14.41
2023-04-19T15:15:18.145Z,14.01
2023-04-19T15:18:04.001Z,13.99
2023-04-19T15:20:49.946Z,14.48
2023-04-19T15:23:35.853Z,14.27
2023-04-19T15:26:21.680Z,14.07
2023-04-19T15:29:07.558Z,13.79
2023-04-19T15:31:53.419Z,13.42
2023-04-19T15:34:39.754Z,13.97
2023-04-19T15:37:25.597Z,13.89
2023-04-19T15:40:11.309Z,14.04
2023-04-19T15:42:57.287Z,13.58
2023-04-19T15:45:45.112Z,14.18
2023-04-19T15:48:31.011Z,14.08
2023-04-19T15:51:17.037Z,14.08
2023-04-19T15:54:02.866Z,13.85
2023-04-19T15:56:48.632Z,13.84
2023-04-19T15:59:34.405Z,13.97
2023-04-19T16:02:20.488Z,13.96
2023-04-19T16:05:06.503Z,14.12
2023-04-19T16:07:52.365Z,13.88
2023-04-19T16:10:38.263Z,13.25
2023-04-19T16:13:24.249Z,13.28
2023-04-19T16:16:10.053Z,13.25
2023-04-19T16:18:56.015Z,13.38
2023-04-19T16:21:43.751Z,12.93
2023-04-19T16:24:29.696Z,12.70
2023-04-19T16:27:15.700Z,12.55
2023-04-19T16:30:01.560Z,12.94
2023-04-19T16:32:47.622Z,13.39
2023-04-19T16:35:33.599Z,13.19
2023-04-19T16:38:19.426Z,13.13
2023-04-19T16:41:05.146Z,13.22
2023-04-19T16:43:51.078Z,13.69
2023-04-19T16:46:36.943Z,13.22
2023-04-19T16:49:22.951Z,12.92
2023-04-19T16:52:08.771Z,13.24
2023-04-19T16:54:54.800Z,13.10
2023-04-19T16:57:40.791Z,12.78
2023-04-19T17:00:26.821Z,12.87
2023-04-19T17:03:12.918Z,12.74
2023-04-19T17:05:59.131Z,12.20
2023-04-19T17:08:45.023Z,12.47
2023-04-19T17:11:30.940Z,12.08
2023-04-19T17:14:16.982Z,11.97
2023-04-19T17:17:03.061Z,11.76
2023-04-19T17:19:48.975Z,11.67
2023-04-19T17:22:34.812Z,12.17
2023-04-19T17:25:22.238Z,12.18
2023-04-19T17:28:08.614Z,11.83
2023-04-19T17:30:54.444Z,11.84
2023-04-19T17:33:40.390Z,11.30
2023-04-19T17:36:26.261Z,11.81
2023-04-19T17:39:12.082Z,12.14
2023-04-19T17:41:57.851Z,11.63
2023-04-19T17:44:43.708Z,12.36
2023-04-19T17:47:29.620Z,11.44
2023-04-19T17:50:15.407Z,11.34
2023-04-19T17:53:01.186Z,11.08
2023-04-19T17:55:47.164Z,10.81
2023-04-19T17:58:32.992Z,10.93
2023-04-19T18:01:18.813Z,10.96
2023-04-19T18:04:05.136Z,10.66
2023-04-19T18:06:51.114Z,10.15
2023-04-19T18:09:37.139Z,10.09
2023-04-19T18:12:22.957Z,10.29
2023-04-19T18:15:08.776Z,9.89
2023-04-19T18:17:54.675Z,9.66
2023-04-19T18:20:40.333Z,9.51
2023-04-19T18:23:28.270Z,9.37
2023-04-19T18:26:14.288Z,9.57
2023-04-19T18:29:00.152Z,9.50
2023-04-19T18:31:46.049Z,9.43
2023-04-19T18:34:31.944Z,9.49
2023-04-19T18:37:17.749Z,9.30
2023-04-19T18:40:03.706Z,9.25
2023-04-19T18:42:49.587Z,9.20
2023-04-19T18:45:35.767Z,9.22
2023-04-19T18:48:21.823Z,9.32
2023-04-19T18:51:07.613Z,9.38
2023-04-19T18:53:53.442Z,9.13
2023-04-19T18:57:18.404Z,9.13
2023-04-19T18:59:45.117Z,9.07
2023-04-19T19:02:31.025Z,9.02
2023-04-19T19:05:17.411Z,8.83
2023-04-19T19:08:03.669Z,8.90
2023-04-19T19:11:14.337Z,8.81
2023-04-19T19:13:56.196Z,8.70
2023-04-19T19:16:51.268Z,8.50
2023-04-19T19:19:37.802Z,8.47
2023-04-19T19:22:28.263Z,8.59
2023-04-19T19:25:14.829Z,8.51
2023-04-19T19:30:49.851Z,8.41
2023-04-19T19:33:38.908Z,8.38
2023-04-19T19:36:25.938Z,8.36
2023-04-19T19:39:11.752Z,8.46
2023-04-19T19:42:06.063Z,8.26
2023-04-19T19:44:52.619Z,8.32
2023-04-19T19:47:44.554Z,8.15
2023-04-19T19:53:20.609Z,8.24
2023-04-19T19:56:13.054Z,8.17
2023-04-19T19:59:04.904Z,7.98
2023-04-19T20:01:50.784Z,8.00
2023-04-19T20:04:36.800Z,8.12
2023-04-19T20:07:33.273Z,7.98
2023-04-19T20:10:28.013Z,8.11
2023-04-19T20:13:13.973Z,8.05
2023-04-19T20:15:59.817Z,7.94
2023-04-19T20:18:45.664Z,8.03
2023-04-19T20:21:31.440Z,8.00
2023-04-19T20:24:17.237Z,8.06
2023-04-19T20:27:03.136Z,7.89
2023-04-19T20:29:48.842Z,7.89
2023-04-19T20:32:34.739Z,7.96
2023-04-19T20:35:20.615Z,7.85
2023-04-19T20:38:06.496Z,7.91
2023-04-19T20:40:52.379Z,7.95
2023-04-19T20:43:38.183Z,8.00
2023-04-19T20:46:24.223Z,8.09
2023-04-19T20:49:10.449Z,8.12
2023-04-19T20:51:56.396Z,8.28
2023-04-19T20:54:42.308Z,8.15
2023-04-19T20:57:28.131Z,8.26
2023-04-19T21:00:14.075Z,8.23
2023-04-19T21:03:00.027Z,8.19
2023-04-19T21:05:45.909Z,8.12
2023-04-19T21:08:31.912Z,8.09
2023-04-19T21:11:17.966Z,8.08
2023-04-19T21:14:03.869Z,8.04
2023-04-19T21:16:49.657Z,8.00
2023-04-19T21:19:35.427Z,8.05
2023-04-19T21:22:21.315Z,8.01
2023-04-19T21:25:07.292Z,8.04
2023-04-19T21:27:53.167Z,7.93
2023-04-19T21:30:39.060Z,7.91
2023-04-19T21:33:24.900Z,7.95
2023-04-19T21:36:10.907Z,7.82
2023-04-19T21:38:56.887Z,7.90
2023-04-19T21:41:42.779Z,7.88
2023-04-19T21:44:28.457Z,8.05
2023-04-19T21:47:14.392Z,8.07
2023-04-19T21:50:00.282Z,7.75
2023-04-19T21:52:46.343Z,7.52
2023-04-19T21:55:34.368Z,7.64
2023-04-19T21:58:20.255Z,7.42
2023-04-19T22:01:06.025Z,7.61
2023-04-19T22:03:52.193Z,7.38
2023-04-19T22:06:38.248Z,7.50
2023-04-19T22:09:24.005Z,7.28
2023-04-19T22:12:09.848Z,7.44
2023-04-19T22:14:55.812Z,7.26
2023-04-19T22:17:41.906Z,7.35
2023-04-19T22:20:27.986Z,7.24
2023-04-19T22:23:14.055Z,7.13
2023-04-19T22:26:00.108Z,7.15
2023-04-19T22:28:46.003Z,7.13
2023-04-19T22:31:32.054Z,7.15
2023-04-19T22:34:17.770Z,7.17
2023-04-19T22:37:03.669Z,7.11
2023-04-19T22:39:49.535Z,7.08
2023-04-19T22:42:35.386Z,7.12
2023-04-19T22:45:21.305Z,7.14
2023-04-19T22:48:07.124Z,6.91
2023-04-19T22:50:53.112Z,6.85
2023-04-19T22:53:39.066Z,6.77
2023-04-19T22:56:24.808Z,6.74
2023-04-19T22:59:10.770Z,6.58
2023-04-19T23:01:56.814Z,6.53
2023-04-19T23:04:43.077Z,6.60
2023-04-19T23:07:29.021Z,6.51
2023-04-19T23:10:14.929Z,6.49
2023-04-19T23:13:00.976Z,6.46
2023-04-19T23:15:46.946Z,6.52
2023-04-19T23:18:32.734Z,6.45
2023-04-19T23:21:18.559Z,6.32
2023-04-19T23:24:04.361Z,6.07
2023-04-19T23:26:50.122Z,6.00
2023-04-19T23:29:36.066Z,6.09
2023-04-19T23:32:22.045Z,5.98
2023-04-19T23:35:08.032Z,5.88
2023-04-19T23:37:54.056Z,5.71
2023-04-19T23:40:39.826Z,5.64
2023-04-19T23:43:25.699Z,5.49
2023-04-19T23:46:11.540Z,5.18
2023-04-19T23:48:57.455Z,5.15
2023-04-19T23:51:43.407Z,5.00
2023-04-19T23:54:29.225Z,4.83
2023-04-19T23:57:15.310Z,4.88
